sensor_id;sensor_type;location;lat;lon;timestamp;temperature;humidity
27667;DHT22;15074;50.940;5.282;2023-02-14T00:00:54;3.10;99.90
27667;DHT22;15074;50.940;5.282;2023-02-14T00:03:20;3.20;99.90
27667;DHT22;15074;50.940;5.282;2023-02-14T00:05:46;3.20;99.90
27667;DHT22;15074;50.940;5.282;2023-02-14T00:08:11;3.10;99.90
27667;DHT22;15074;50.940;5.282;2023-02-14T00:10:37;3.20;99.90
27667;DHT22;15074;50.940;5.282;2023-02-14T00:13:03;3.30;99.90
27667;DHT22;15074;50.940;5.282;2023-02-14T00:15:29;3.30;99.90
27667;DHT22;15074;50.940;5.282;2023-02-14T00:17:56;3.30;99.90
27667;DHT22;15074;50.940;5.282;2023-02-14T00:20:24;3.20;99.90
27667;DHT22;15074;50.940;5.282;2023-02-14T00:22:50;3.10;99.90
27667;DHT22;15074;50.940;5.282;2023-02-14T00:25:16;2.90;99.90
27667;DHT22;15074;50.940;5.282;2023-02-14T00:27:42;2.80;99.90
27667;DHT22;15074;50.940;5.282;2023-02-14T00:30:09;2.70;99.90
27667;DHT22;15074;50.940;5.282;2023-02-14T00:32:39;2.70;99.90
27667;DHT22;15074;50.940;5.282;2023-02-14T00:35:07;2.80;99.90
27667;DHT22;15074;50.940;5.282;2023-02-14T00:37:33;2.80;99.90
27667;DHT22;15074;50.940;5.282;2023-02-14T00:39:59;2.80;99.90
27667;DHT22;15074;50.940;5.282;2023-02-14T00:42:25;2.70;99.90
27667;DHT22;15074;50.940;5.282;2023-02-14T00:44:52;2.60;99.90
27667;DHT22;15074;50.940;5.282;2023-02-14T00:47:17;2.50;99.90
27667;DHT22;15074;50.940;5.282;2023-02-14T00:49:43;2.50;99.90
27667;DHT22;15074;50.940;5.282;2023-02-14T00:55:35;2.60;99.90
27667;DHT22;15074;50.940;5.282;2023-02-14T00:58:00;2.80;99.90
27667;DHT22;15074;50.940;5.282;2023-02-14T01:00:26;2.70;99.90
27667;DHT22;15074;50.940;5.282;2023-02-14T01:06:00;2.40;99.90
27667;DHT22;15074;50.940;5.282;2023-02-14T01:08:26;2.40;99.90
27667;DHT22;15074;50.940;5.282;2023-02-14T01:10:52;2.50;99.90
27667;DHT22;15074;50.940;5.282;2023-02-14T01:13:18;2.70;99.90
27667;DHT22;15074;50.940;5.282;2023-02-14T01:15:49;2.80;99.90
27667;DHT22;15074;50.940;5.282;2023-02-14T01:18:17;2.70;99.90
27667;DHT22;15074;50.940;5.282;2023-02-14T01:20:43;2.60;99.90
27667;DHT22;15074;50.940;5.282;2023-02-14T01:23:09;2.50;99.90
27667;DHT22;15074;50.940;5.282;2023-02-14T01:25:38;2.50;99.90
27667;DHT22;15074;50.940;5.282;2023-02-14T01:28:36;2.40;99.90
27667;DHT22;15074;50.940;5.282;2023-02-14T01:31:19;2.50;99.90
27667;DHT22;15074;50.940;5.282;2023-02-14T01:33:47;2.40;99.90
27667;DHT22;15074;50.940;5.282;2023-02-14T01:36:21;2.30;99.90
27667;DHT22;15074;50.940;5.282;2023-02-14T01:39:15;2.30;99.90
27667;DHT22;15074;50.940;5.282;2023-02-14T01:42:01;2.30;99.90
27667;DHT22;15074;50.940;5.282;2023-02-14T01:46:53;2.10;99.90
27667;DHT22;15074;50.940;5.282;2023-02-14T01:49:48;2.20;99.90
27667;DHT22;15074;50.940;5.282;2023-02-14T01:52:39;2.20;99.90
27667;DHT22;15074;50.940;5.282;2023-02-14T01:55:10;2.20;99.90
27667;DHT22;15074;50.940;5.282;2023-02-14T01:58:16;2.00;99.90
27667;DHT22;15074;50.940;5.282;2023-02-14T02:00:43;1.80;99.90
27667;DHT22;15074;50.940;5.282;2023-02-14T02:05:56;1.80;99.90
27667;DHT22;15074;50.940;5.282;2023-02-14T02:08:24;1.80;99.90
27667;DHT22;15074;50.940;5.282;2023-02-14T02:10:50;1.70;99.90
27667;DHT22;15074;50.940;5.282;2023-02-14T02:13:17;1.60;99.90
27667;DHT22;15074;50.940;5.282;2023-02-14T02:22:15;1.80;99.90
27667;DHT22;15074;50.940;5.282;2023-02-14T02:24:59;1.90;99.90
27667;DHT22;15074;50.940;5.282;2023-02-14T02:27:59;1.90;99.90
27667;DHT22;15074;50.940;5.282;2023-02-14T02:33:36;1.60;99.90
27667;DHT22;15074;50.940;5.282;2023-02-14T02:36:17;1.50;99.90
27667;DHT22;15074;50.940;5.282;2023-02-14T02:42:04;1.30;99.90
27667;DHT22;15074;50.940;5.282;2023-02-14T02:47:53;1.40;99.90
27667;DHT22;15074;50.940;5.282;2023-02-14T02:50:33;1.40;99.90
27667;DHT22;15074;50.940;5.282;2023-02-14T02:56:19;1.20;99.90
27667;DHT22;15074;50.940;5.282;2023-02-14T02:59:15;1.20;99.90
27667;DHT22;15074;50.940;5.282;2023-02-14T03:04:38;1.30;99.90
27667;DHT22;15074;50.940;5.282;2023-02-14T03:10:23;1.40;99.90
27667;DHT22;15074;50.940;5.282;2023-02-14T03:18:37;1.30;99.90
27667;DHT22;15074;50.940;5.282;2023-02-14T03:24:38;1.00;99.90
27667;DHT22;15074;50.940;5.282;2023-02-14T03:27:24;1.00;99.90
27667;DHT22;15074;50.940;5.282;2023-02-14T03:36:15;0.80;99.90
27667;DHT22;15074;50.940;5.282;2023-02-14T03:38:50;0.90;99.90
27667;DHT22;15074;50.940;5.282;2023-02-14T03:47:59;1.00;99.90
27667;DHT22;15074;50.940;5.282;2023-02-14T03:50:27;1.10;99.90
27667;DHT22;15074;50.940;5.282;2023-02-14T03:52:54;1.00;99.90
27667;DHT22;15074;50.940;5.282;2023-02-14T03:55:46;0.90;99.90
27667;DHT22;15074;50.940;5.282;2023-02-14T03:58:29;0.90;99.90
27667;DHT22;15074;50.940;5.282;2023-02-14T04:01:04;1.00;99.90
27667;DHT22;15074;50.940;5.282;2023-02-14T04:03:31;1.00;99.90
27667;DHT22;15074;50.940;5.282;2023-02-14T04:05:59;1.00;99.90
27667;DHT22;15074;50.940;5.282;2023-02-14T04:08:27;0.90;99.90
27667;DHT22;15074;50.940;5.282;2023-02-14T04:10:55;1.10;99.90
27667;DHT22;15074;50.940;5.282;2023-02-14T04:16:25;0.90;99.90
27667;DHT22;15074;50.940;5.282;2023-02-14T04:18:50;0.70;99.90
27667;DHT22;15074;50.940;5.282;2023-02-14T04:21:35;0.70;99.90
27667;DHT22;15074;50.940;5.282;2023-02-14T04:24:01;0.70;99.90
27667;DHT22;15074;50.940;5.282;2023-02-14T04:26:26;0.80;99.90
27667;DHT22;15074;50.940;5.282;2023-02-14T04:28:52;0.90;99.90
27667;DHT22;15074;50.940;5.282;2023-02-14T04:31:18;0.90;99.90
27667;DHT22;15074;50.940;5.282;2023-02-14T04:33:43;0.90;99.90
27667;DHT22;15074;50.940;5.282;2023-02-14T04:36:10;0.90;99.90
27667;DHT22;15074;50.940;5.282;2023-02-14T04:38:36;0.90;99.90
27667;DHT22;15074;50.940;5.282;2023-02-14T04:41:02;0.90;99.90
27667;DHT22;15074;50.940;5.282;2023-02-14T04:43:28;0.90;99.90
27667;DHT22;15074;50.940;5.282;2023-02-14T04:45:54;0.80;99.90
27667;DHT22;15074;50.940;5.282;2023-02-14T04:51:26;0.70;99.90
27667;DHT22;15074;50.940;5.282;2023-02-14T04:53:52;0.80;99.90
27667;DHT22;15074;50.940;5.282;2023-02-14T04:56:17;0.80;99.90
27667;DHT22;15074;50.940;5.282;2023-02-14T05:09:04;0.60;99.90
27667;DHT22;15074;50.940;5.282;2023-02-14T05:14:33;0.50;99.90
27667;DHT22;15074;50.940;5.282;2023-02-14T05:16:58;0.50;99.90
27667;DHT22;15074;50.940;5.282;2023-02-14T05:19:30;0.60;99.90
27667;DHT22;15074;50.940;5.282;2023-02-14T05:21:56;0.60;99.90
27667;DHT22;15074;50.940;5.282;2023-02-14T05:24:21;0.80;99.90
27667;DHT22;15074;50.940;5.282;2023-02-14T05:26:47;1.00;99.90
27667;DHT22;15074;50.940;5.282;2023-02-14T05:36:06;0.90;99.90
27667;DHT22;15074;50.940;5.282;2023-02-14T05:38:32;0.90;99.90
27667;DHT22;15074;50.940;5.282;2023-02-14T05:40:59;0.70;99.90
27667;DHT22;15074;50.940;5.282;2023-02-14T05:50:52;0.50;99.90
27667;DHT22;15074;50.940;5.282;2023-02-14T05:53:18;0.60;99.90
27667;DHT22;15074;50.940;5.282;2023-02-14T05:55:44;0.60;99.90
27667;DHT22;15074;50.940;5.282;2023-02-14T05:58:09;0.60;99.90
27667;DHT22;15074;50.940;5.282;2023-02-14T06:04:43;0.60;99.90
27667;DHT22;15074;50.940;5.282;2023-02-14T06:07:09;0.60;99.90
27667;DHT22;15074;50.940;5.282;2023-02-14T06:09:35;0.50;99.90
27667;DHT22;15074;50.940;5.282;2023-02-14T06:12:00;0.40;99.90
27667;DHT22;15074;50.940;5.282;2023-02-14T06:18:14;0.40;99.90
27667;DHT22;15074;50.940;5.282;2023-02-14T06:20:39;0.50;99.90
27667;DHT22;15074;50.940;5.282;2023-02-14T06:23:05;0.50;99.90
27667;DHT22;15074;50.940;5.282;2023-02-14T06:25:30;0.60;99.90
27667;DHT22;15074;50.940;5.282;2023-02-14T06:31:23;0.80;99.90
27667;DHT22;15074;50.940;5.282;2023-02-14T06:33:52;1.10;99.90
27667;DHT22;15074;50.940;5.282;2023-02-14T06:36:18;1.20;99.90
27667;DHT22;15074;50.940;5.282;2023-02-14T06:38:44;1.20;99.90
27667;DHT22;15074;50.940;5.282;2023-02-14T06:41:12;1.20;99.90
27667;DHT22;15074;50.940;5.282;2023-02-14T06:46:55;0.90;99.90
27667;DHT22;15074;50.940;5.282;2023-02-14T06:49:21;0.80;99.90
27667;DHT22;15074;50.940;5.282;2023-02-14T06:51:48;0.80;99.90
27667;DHT22;15074;50.940;5.282;2023-02-14T07:43:26;1.60;99.90
27667;DHT22;15074;50.940;5.282;2023-02-14T07:45:52;1.90;99.90
27667;DHT22;15074;50.940;5.282;2023-02-14T07:48:18;2.20;99.90
27667;DHT22;15074;50.940;5.282;2023-02-14T07:50:44;2.40;99.90
27667;DHT22;15074;50.940;5.282;2023-02-14T07:53:09;2.50;99.90
27667;DHT22;15074;50.940;5.282;2023-02-14T07:55:35;2.80;99.90
27667;DHT22;15074;50.940;5.282;2023-02-14T07:58:01;3.20;99.90
27667;DHT22;15074;50.940;5.282;2023-02-14T08:00:27;3.70;99.90
27667;DHT22;15074;50.940;5.282;2023-02-14T08:02:53;4.80;99.90
27667;DHT22;15074;50.940;5.282;2023-02-14T08:05:20;6.00;99.90
27667;DHT22;15074;50.940;5.282;2023-02-14T08:07:46;7.20;99.90
27667;DHT22;15074;50.940;5.282;2023-02-14T08:10:12;8.30;99.90
27667;DHT22;15074;50.940;5.282;2023-02-14T08:12:39;9.40;99.90
27667;DHT22;15074;50.940;5.282;2023-02-14T08:15:24;10.30;99.90
27667;DHT22;15074;50.940;5.282;2023-02-14T08:18:09;9.60;99.90
27667;DHT22;15074;50.940;5.282;2023-02-14T08:20:35;10.00;99.90
27667;DHT22;15074;50.940;5.282;2023-02-14T08:23:01;10.90;99.90
27667;DHT22;15074;50.940;5.282;2023-02-14T08:25:27;11.80;99.90
27667;DHT22;15074;50.940;5.282;2023-02-14T08:27:52;12.80;99.90
27667;DHT22;15074;50.940;5.282;2023-02-14T08:30:20;13.40;99.90
27667;DHT22;15074;50.940;5.282;2023-02-14T08:32:45;13.90;99.90
27667;DHT22;15074;50.940;5.282;2023-02-14T08:35:11;14.50;99.90
27667;DHT22;15074;50.940;5.282;2023-02-14T08:37:37;15.10;99.90
27667;DHT22;15074;50.940;5.282;2023-02-14T08:40:03;15.70;99.90
27667;DHT22;15074;50.940;5.282;2023-02-14T08:42:28;16.10;99.90
27667;DHT22;15074;50.940;5.282;2023-02-14T08:44:54;17.10;99.90
27667;DHT22;15074;50.940;5.282;2023-02-14T08:47:20;17.10;99.90
27667;DHT22;15074;50.940;5.282;2023-02-14T08:49:46;17.80;99.90
27667;DHT22;15074;50.940;5.282;2023-02-14T08:52:11;18.40;99.90
27667;DHT22;15074;50.940;5.282;2023-02-14T08:54:37;18.40;99.60
27667;DHT22;15074;50.940;5.282;2023-02-14T08:57:03;18.40;99.90
27667;DHT22;15074;50.940;5.282;2023-02-14T08:59:28;18.10;99.90
27667;DHT22;15074;50.940;5.282;2023-02-14T09:01:54;17.00;99.90
27667;DHT22;15074;50.940;5.282;2023-02-14T09:04:19;14.50;99.90
27667;DHT22;15074;50.940;5.282;2023-02-14T09:06:45;13.70;99.90
27667;DHT22;15074;50.940;5.282;2023-02-14T09:09:11;13.90;99.90
27667;DHT22;15074;50.940;5.282;2023-02-14T09:11:36;13.60;99.90
27667;DHT22;15074;50.940;5.282;2023-02-14T09:14:02;12.50;99.90
27667;DHT22;15074;50.940;5.282;2023-02-14T09:16:28;12.10;99.90
27667;DHT22;15074;50.940;5.282;2023-02-14T09:18:53;12.20;99.90
27667;DHT22;15074;50.940;5.282;2023-02-14T09:21:28;13.00;99.90
27667;DHT22;15074;50.940;5.282;2023-02-14T09:23:54;13.30;99.90
27667;DHT22;15074;50.940;5.282;2023-02-14T09:26:20;13.00;99.90
27667;DHT22;15074;50.940;5.282;2023-02-14T09:28:46;12.60;99.90
27667;DHT22;15074;50.940;5.282;2023-02-14T09:31:16;13.40;99.90
27667;DHT22;15074;50.940;5.282;2023-02-14T09:33:43;14.60;99.90
27667;DHT22;15074;50.940;5.282;2023-02-14T09:36:28;15.10;99.90
27667;DHT22;15074;50.940;5.282;2023-02-14T09:39:12;14.10;99.90
27667;DHT22;15074;50.940;5.282;2023-02-14T09:50:06;14.60;99.90
27667;DHT22;15074;50.940;5.282;2023-02-14T09:52:35;14.80;99.90
27667;DHT22;15074;50.940;5.282;2023-02-14T09:55:02;15.00;99.90
27667;DHT22;15074;50.940;5.282;2023-02-14T10:06:00;14.10;99.90
27667;DHT22;15074;50.940;5.282;2023-02-14T10:08:46;14.90;99.90
27667;DHT22;15074;50.940;5.282;2023-02-14T10:11:17;15.30;99.90
27667;DHT22;15074;50.940;5.282;2023-02-14T10:16:53;18.00;99.90
27667;DHT22;15074;50.940;5.282;2023-02-14T10:19:38;18.30;99.90
27667;DHT22;15074;50.940;5.282;2023-02-14T10:22:14;18.90;99.90
27667;DHT22;15074;50.940;5.282;2023-02-14T10:25:03;18.80;99.90
27667;DHT22;15074;50.940;5.282;2023-02-14T10:27:37;18.90;99.90
27667;DHT22;15074;50.940;5.282;2023-02-14T10:30:19;18.90;99.90
27667;DHT22;15074;50.940;5.282;2023-02-14T10:33:01;18.60;99.90
27667;DHT22;15074;50.940;5.282;2023-02-14T10:46:53;20.80;96.90
27667;DHT22;15074;50.940;5.282;2023-02-14T10:52:14;21.00;95.30
27667;DHT22;15074;50.940;5.282;2023-02-14T10:54:43;20.90;95.50
27667;DHT22;15074;50.940;5.282;2023-02-14T11:00:24;21.10;93.40
27667;DHT22;15074;50.940;5.282;2023-02-14T11:02:30;19.40;95.20
27667;DHT22;15074;50.940;5.282;2023-02-14T11:04:57;19.90;97.10
27667;DHT22;15074;50.940;5.282;2023-02-14T11:07:23;21.50;95.00
27667;DHT22;15074;50.940;5.282;2023-02-14T11:09:48;20.60;94.50
27667;DHT22;15074;50.940;5.282;2023-02-14T11:12:43;21.60;94.10
27667;DHT22;15074;50.940;5.282;2023-02-14T11:17:38;19.50;94.30
27667;DHT22;15074;50.940;5.282;2023-02-14T11:22:45;19.50;95.40
27667;DHT22;15074;50.940;5.282;2023-02-14T11:25:23;18.50;97.30
27667;DHT22;15074;50.940;5.282;2023-02-14T11:27:57;16.90;99.90
27667;DHT22;15074;50.940;5.282;2023-02-14T11:32:52;18.40;98.40
27667;DHT22;15074;50.940;5.282;2023-02-14T11:35:20;19.10;97.20
27667;DHT22;15074;50.940;5.282;2023-02-14T11:37:51;20.30;95.80
27667;DHT22;15074;50.940;5.282;2023-02-14T11:40:32;21.40;93.30
27667;DHT22;15074;50.940;5.282;2023-02-14T11:45:37;21.70;93.20
27667;DHT22;15074;50.940;5.282;2023-02-14T11:48:07;21.90;93.00
27667;DHT22;15074;50.940;5.282;2023-02-14T11:50:35;22.70;91.60
27667;DHT22;15074;50.940;5.282;2023-02-14T11:53:01;23.40;90.60
27667;DHT22;15074;50.940;5.282;2023-02-14T11:55:30;21.50;91.10
27667;DHT22;15074;50.940;5.282;2023-02-14T11:58:02;19.70;93.20
27667;DHT22;15074;50.940;5.282;2023-02-14T12:00:29;20.00;94.20
27667;DHT22;15074;50.940;5.282;2023-02-14T12:02:58;19.90;94.20
27667;DHT22;15074;50.940;5.282;2023-02-14T12:05:30;18.30;95.40
27667;DHT22;15074;50.940;5.282;2023-02-14T12:08:05;18.20;96.60
27667;DHT22;15074;50.940;5.282;2023-02-14T12:10:34;17.90;98.40
27667;DHT22;15074;50.940;5.282;2023-02-14T12:13:02;18.60;96.80
27667;DHT22;15074;50.940;5.282;2023-02-14T12:15:51;18.50;96.00
27667;DHT22;15074;50.940;5.282;2023-02-14T12:23:25;17.50;99.20
27667;DHT22;15074;50.940;5.282;2023-02-14T12:28:50;18.00;98.00
27667;DHT22;15074;50.940;5.282;2023-02-14T12:31:19;17.80;97.30
27667;DHT22;15074;50.940;5.282;2023-02-14T12:33:44;17.70;98.60
27667;DHT22;15074;50.940;5.282;2023-02-14T12:39:02;18.00;96.30
27667;DHT22;15074;50.940;5.282;2023-02-14T12:55:41;19.80;93.80
27667;DHT22;15074;50.940;5.282;2023-02-14T13:01:00;19.70;94.20
27667;DHT22;15074;50.940;5.282;2023-02-14T13:12:10;19.00;94.80
27667;DHT22;15074;50.940;5.282;2023-02-14T13:20:05;19.60;93.70
27667;DHT22;15074;50.940;5.282;2023-02-14T13:22:40;20.30;93.70
27667;DHT22;15074;50.940;5.282;2023-02-14T13:25:40;21.60;92.70
27667;DHT22;15074;50.940;5.282;2023-02-14T13:28:11;22.20;91.50
27667;DHT22;15074;50.940;5.282;2023-02-14T13:30:37;22.30;90.40
27667;DHT22;15074;50.940;5.282;2023-02-14T13:33:06;22.20;90.00
27667;DHT22;15074;50.940;5.282;2023-02-14T13:35:33;21.20;90.70
27667;DHT22;15074;50.940;5.282;2023-02-14T13:38:06;19.80;91.50
27667;DHT22;15074;50.940;5.282;2023-02-14T13:40:34;18.60;93.70
27667;DHT22;15074;50.940;5.282;2023-02-14T13:43:00;18.80;95.50
27667;DHT22;15074;50.940;5.282;2023-02-14T13:50:48;19.40;93.90
27667;DHT22;15074;50.940;5.282;2023-02-14T13:55:54;18.30;95.20
27667;DHT22;15074;50.940;5.282;2023-02-14T13:58:20;17.90;96.20
27667;DHT22;15074;50.940;5.282;2023-02-14T14:00:48;17.70;96.70
27667;DHT22;15074;50.940;5.282;2023-02-14T14:06:08;16.80;98.20
27667;DHT22;15074;50.940;5.282;2023-02-14T14:11:02;18.00;96.80
27667;DHT22;15074;50.940;5.282;2023-02-14T14:16:26;19.40;93.60
27667;DHT22;15074;50.940;5.282;2023-02-14T14:21:44;18.00;95.10
27667;DHT22;15074;50.940;5.282;2023-02-14T14:24:29;18.10;96.70
27667;DHT22;15074;50.940;5.282;2023-02-14T14:27:16;18.10;96.20
27667;DHT22;15074;50.940;5.282;2023-02-14T14:30:04;18.10;95.20
27667;DHT22;15074;50.940;5.282;2023-02-14T14:32:35;17.10;96.60
27667;DHT22;15074;50.940;5.282;2023-02-14T14:37:46;16.60;98.30
27667;DHT22;15074;50.940;5.282;2023-02-14T14:40:26;16.20;98.20
27667;DHT22;15074;50.940;5.282;2023-02-14T14:42:54;16.60;98.20
27667;DHT22;15074;50.940;5.282;2023-02-14T14:45:21;17.30;98.50
27667;DHT22;15074;50.940;5.282;2023-02-14T14:47:51;17.40;97.20
27667;DHT22;15074;50.940;5.282;2023-02-14T14:50:26;17.80;97.20
27667;DHT22;15074;50.940;5.282;2023-02-14T14:52:54;17.80;96.90
27667;DHT22;15074;50.940;5.282;2023-02-14T14:55:28;16.80;97.90
27667;DHT22;15074;50.940;5.282;2023-02-14T14:57:56;16.40;98.80
27667;DHT22;15074;50.940;5.282;2023-02-14T15:00:32;16.40;99.30
27667;DHT22;15074;50.940;5.282;2023-02-14T15:03:05;16.10;99.50
27667;DHT22;15074;50.940;5.282;2023-02-14T15:05:46;16.00;99.90
27667;DHT22;15074;50.940;5.282;2023-02-14T15:13:43;15.40;99.90
27667;DHT22;15074;50.940;5.282;2023-02-14T15:18:43;15.50;99.90
27667;DHT22;15074;50.940;5.282;2023-02-14T15:21:09;15.60;99.90
27667;DHT22;15074;50.940;5.282;2023-02-14T15:23:35;15.70;99.90
27667;DHT22;15074;50.940;5.282;2023-02-14T15:26:01;16.00;99.90
27667;DHT22;15074;50.940;5.282;2023-02-14T15:28:29;15.50;99.90
27667;DHT22;15074;50.940;5.282;2023-02-14T15:30:57;15.10;99.90
27667;DHT22;15074;50.940;5.282;2023-02-14T15:33:23;15.10;99.90
27667;DHT22;15074;50.940;5.282;2023-02-14T15:35:49;15.20;99.90
27667;DHT22;15074;50.940;5.282;2023-02-14T15:38:16;15.20;99.90
27667;DHT22;15074;50.940;5.282;2023-02-14T15:40:43;14.90;99.90
27667;DHT22;15074;50.940;5.282;2023-02-14T15:45:53;14.70;99.90
27667;DHT22;15074;50.940;5.282;2023-02-14T15:48:28;14.50;99.90
27667;DHT22;15074;50.940;5.282;2023-02-14T15:50:56;14.60;99.90
27667;DHT22;15074;50.940;5.282;2023-02-14T15:56:44;14.50;99.90
27667;DHT22;15074;50.940;5.282;2023-02-14T15:59:20;14.40;99.90
27667;DHT22;15074;50.940;5.282;2023-02-14T16:02:00;14.20;99.90
27667;DHT22;15074;50.940;5.282;2023-02-14T16:04:30;13.90;99.90
27667;DHT22;15074;50.940;5.282;2023-02-14T16:09:50;13.60;99.90
27667;DHT22;15074;50.940;5.282;2023-02-14T16:12:31;13.40;99.90
27667;DHT22;15074;50.940;5.282;2023-02-14T16:17:39;13.20;99.90
27667;DHT22;15074;50.940;5.282;2023-02-14T16:20:39;12.90;99.90
27667;DHT22;15074;50.940;5.282;2023-02-14T16:23:27;12.70;99.90
27667;DHT22;15074;50.940;5.282;2023-02-14T16:25:53;12.70;99.90
27667;DHT22;15074;50.940;5.282;2023-02-14T16:28:22;12.50;99.90
27667;DHT22;15074;50.940;5.282;2023-02-14T16:30:53;12.20;99.90
27667;DHT22;15074;50.940;5.282;2023-02-14T16:33:23;12.00;99.90
27667;DHT22;15074;50.940;5.282;2023-02-14T16:35:49;11.80;99.90
27667;DHT22;15074;50.940;5.282;2023-02-14T16:38:17;11.80;99.90
27667;DHT22;15074;50.940;5.282;2023-02-14T16:40:49;11.60;99.90
27667;DHT22;15074;50.940;5.282;2023-02-14T16:43:18;11.40;99.90
27667;DHT22;15074;50.940;5.282;2023-02-14T16:45:44;11.00;99.90
27667;DHT22;15074;50.940;5.282;2023-02-14T16:48:10;10.80;99.90
27667;DHT22;15074;50.940;5.282;2023-02-14T16:50:38;10.70;99.90
27667;DHT22;15074;50.940;5.282;2023-02-14T16:53:20;10.80;99.90
27667;DHT22;15074;50.940;5.282;2023-02-14T16:55:47;10.70;99.90
27667;DHT22;15074;50.940;5.282;2023-02-14T16:58:13;10.70;99.90
27667;DHT22;15074;50.940;5.282;2023-02-14T17:00:39;10.30;99.90
27667;DHT22;15074;50.940;5.282;2023-02-14T17:03:05;10.20;99.90
27667;DHT22;15074;50.940;5.282;2023-02-14T17:05:34;9.90;99.90
27667;DHT22;15074;50.940;5.282;2023-02-14T17:08:02;9.60;99.90
27667;DHT22;15074;50.940;5.282;2023-02-14T17:10:29;9.40;99.90
27667;DHT22;15074;50.940;5.282;2023-02-14T17:12:57;9.30;99.90
27667;DHT22;15074;50.940;5.282;2023-02-14T17:15:24;9.20;99.90
27667;DHT22;15074;50.940;5.282;2023-02-14T17:17:55;9.10;99.90
27667;DHT22;15074;50.940;5.282;2023-02-14T17:20:23;9.10;99.90
27667;DHT22;15074;50.940;5.282;2023-02-14T17:22:49;9.00;99.90
27667;DHT22;15074;50.940;5.282;2023-02-14T17:25:15;9.00;99.90
27667;DHT22;15074;50.940;5.282;2023-02-14T17:27:41;8.90;99.90
27667;DHT22;15074;50.940;5.282;2023-02-14T17:30:10;8.90;99.90
27667;DHT22;15074;50.940;5.282;2023-02-14T17:32:37;8.90;99.90
27667;DHT22;15074;50.940;5.282;2023-02-14T17:35:03;8.70;99.90
27667;DHT22;15074;50.940;5.282;2023-02-14T17:37:31;8.60;99.90
27667;DHT22;15074;50.940;5.282;2023-02-14T17:39:57;8.50;99.90
27667;DHT22;15074;50.940;5.282;2023-02-14T17:42:22;8.40;99.90
27667;DHT22;15074;50.940;5.282;2023-02-14T17:44:48;8.30;99.90
27667;DHT22;15074;50.940;5.282;2023-02-14T17:47:14;8.20;99.90
27667;DHT22;15074;50.940;5.282;2023-02-14T17:49:43;8.10;99.90
27667;DHT22;15074;50.940;5.282;2023-02-14T17:52:12;8.10;99.90
27667;DHT22;15074;50.940;5.282;2023-02-14T17:54:37;8.00;99.90
27667;DHT22;15074;50.940;5.282;2023-02-14T17:57:03;8.00;99.90
27667;DHT22;15074;50.940;5.282;2023-02-14T17:59:30;7.90;99.90
27667;DHT22;15074;50.940;5.282;2023-02-14T18:01:56;7.90;99.90
27667;DHT22;15074;50.940;5.282;2023-02-14T18:04:22;8.00;99.90
27667;DHT22;15074;50.940;5.282;2023-02-14T18:06:48;7.90;99.90
27667;DHT22;15074;50.940;5.282;2023-02-14T18:09:13;7.80;99.90
27667;DHT22;15074;50.940;5.282;2023-02-14T18:11:40;7.90;99.90
27667;DHT22;15074;50.940;5.282;2023-02-14T18:14:07;7.80;99.90
27667;DHT22;15074;50.940;5.282;2023-02-14T18:16:36;7.80;99.90
27667;DHT22;15074;50.940;5.282;2023-02-14T18:19:03;7.80;99.90
27667;DHT22;15074;50.940;5.282;2023-02-14T18:21:31;7.70;99.90
27667;DHT22;15074;50.940;5.282;2023-02-14T18:23:59;7.60;99.90
27667;DHT22;15074;50.940;5.282;2023-02-14T18:26:25;7.50;99.90
27667;DHT22;15074;50.940;5.282;2023-02-14T18:28:51;7.30;99.90
27667;DHT22;15074;50.940;5.282;2023-02-14T18:31:17;7.20;99.90
27667;DHT22;15074;50.940;5.282;2023-02-14T18:33:44;7.10;99.90
27667;DHT22;15074;50.940;5.282;2023-02-14T18:36:13;6.80;99.90
27667;DHT22;15074;50.940;5.282;2023-02-14T18:38:39;6.70;99.90
27667;DHT22;15074;50.940;5.282;2023-02-14T18:41:07;7.00;99.90
27667;DHT22;15074;50.940;5.282;2023-02-14T18:43:34;7.20;99.90
27667;DHT22;15074;50.940;5.282;2023-02-14T18:46:20;7.20;99.90
27667;DHT22;15074;50.940;5.282;2023-02-14T18:48:47;7.30;99.90
27667;DHT22;15074;50.940;5.282;2023-02-14T18:53:43;7.20;99.90
27667;DHT22;15074;50.940;5.282;2023-02-14T18:56:11;7.10;99.90
27667;DHT22;15074;50.940;5.282;2023-02-14T18:58:38;6.90;99.90
27667;DHT22;15074;50.940;5.282;2023-02-14T19:01:11;6.80;99.90
27667;DHT22;15074;50.940;5.282;2023-02-14T19:03:38;6.70;99.90
27667;DHT22;15074;50.940;5.282;2023-02-14T19:06:04;6.80;99.90
27667;DHT22;15074;50.940;5.282;2023-02-14T19:08:34;6.70;99.90
27667;DHT22;15074;50.940;5.282;2023-02-14T19:11:00;6.70;99.90
27667;DHT22;15074;50.940;5.282;2023-02-14T19:13:27;6.60;99.90
27667;DHT22;15074;50.940;5.282;2023-02-14T19:16:03;6.40;99.90
27667;DHT22;15074;50.940;5.282;2023-02-14T19:18:32;6.20;99.90
27667;DHT22;15074;50.940;5.282;2023-02-14T19:21:16;6.20;99.90
27667;DHT22;15074;50.940;5.282;2023-02-14T19:23:44;6.20;99.90
27667;DHT22;15074;50.940;5.282;2023-02-14T19:26:18;6.20;99.90
27667;DHT22;15074;50.940;5.282;2023-02-14T19:28:46;6.10;99.90
27667;DHT22;15074;50.940;5.282;2023-02-14T19:31:12;6.00;99.90
27667;DHT22;15074;50.940;5.282;2023-02-14T19:33:42;6.00;99.90
27667;DHT22;15074;50.940;5.282;2023-02-14T19:36:10;5.90;99.90
27667;DHT22;15074;50.940;5.282;2023-02-14T19:38:38;5.90;99.90
27667;DHT22;15074;50.940;5.282;2023-02-14T19:41:09;5.90;99.90
27667;DHT22;15074;50.940;5.282;2023-02-14T19:43:37;5.90;99.90
27667;DHT22;15074;50.940;5.282;2023-02-14T19:46:04;5.90;99.90
27667;DHT22;15074;50.940;5.282;2023-02-14T19:48:30;5.90;99.90
27667;DHT22;15074;50.940;5.282;2023-02-14T19:50:57;5.90;99.90
27667;DHT22;15074;50.940;5.282;2023-02-14T19:53:24;5.80;99.90
27667;DHT22;15074;50.940;5.282;2023-02-14T19:55:50;5.70;99.90
27667;DHT22;15074;50.940;5.282;2023-02-14T19:58:16;5.40;99.90
27667;DHT22;15074;50.940;5.282;2023-02-14T20:00:43;5.30;99.90
27667;DHT22;15074;50.940;5.282;2023-02-14T20:03:08;5.20;99.90
27667;DHT22;15074;50.940;5.282;2023-02-14T20:05:37;5.10;99.90
27667;DHT22;15074;50.940;5.282;2023-02-14T20:08:04;5.00;99.90
27667;DHT22;15074;50.940;5.282;2023-02-14T20:10:30;5.00;99.90
27667;DHT22;15074;50.940;5.282;2023-02-14T20:12:55;5.00;99.90
27667;DHT22;15074;50.940;5.282;2023-02-14T20:15:21;5.00;99.90
27667;DHT22;15074;50.940;5.282;2023-02-14T20:17:47;4.90;99.90
27667;DHT22;15074;50.940;5.282;2023-02-14T20:20:13;4.90;99.90
27667;DHT22;15074;50.940;5.282;2023-02-14T20:22:40;4.80;99.90
27667;DHT22;15074;50.940;5.282;2023-02-14T20:25:06;4.90;99.90
27667;DHT22;15074;50.940;5.282;2023-02-14T20:27:34;4.80;99.90
27667;DHT22;15074;50.940;5.282;2023-02-14T20:29:59;4.70;99.90
27667;DHT22;15074;50.940;5.282;2023-02-14T20:32:25;4.60;99.90
27667;DHT22;15074;50.940;5.282;2023-02-14T20:34:51;4.60;99.90
27667;DHT22;15074;50.940;5.282;2023-02-14T20:37:17;4.60;99.90
27667;DHT22;15074;50.940;5.282;2023-02-14T20:39:42;4.60;99.90
27667;DHT22;15074;50.940;5.282;2023-02-14T20:42:08;4.60;99.90
27667;DHT22;15074;50.940;5.282;2023-02-14T20:44:34;4.70;99.90